sensor_id;sensor_type;location;lat;lon;timestamp;pressure;altitude;pressure_sealevel;temperature;humidity
62150;BME280;48134;53.586;10.610;2023-10-31T00:02:09;98838.59;;;9.82;100.00
62150;BME280;48134;53.586;10.610;2023-10-31T00:04:37;98833.34;;;9.86;100.00
62150;BME280;48134;53.586;10.610;2023-10-31T00:07:05;98832.53;;;9.85;100.00
62150;BME280;48134;53.586;10.610;2023-10-31T00:09:33;98824.38;;;9.85;100.00
62150;BME280;48134;53.586;10.610;2023-10-31T00:12:08;98826.75;;;9.87;100.00
62150;BME280;48134;53.586;10.610;2023-10-31T00:14:41;98817.03;;;9.86;100.00
62150;BME280;48134;53.586;10.610;2023-10-31T00:17:09;98808.88;;;9.86;100.00
62150;BME280;48134;53.586;10.610;2023-10-31T00:19:42;98813.50;;;9.85;100.00
62150;BME280;48134;53.586;10.610;2023-10-31T00:22:16;98809.69;;;9.86;100.00
62150;BME280;48134;53.586;10.610;2023-10-31T00:24:44;98810.00;;;9.85;100.00
62150;BME280;48134;53.586;10.610;2023-10-31T00:27:18;98801.03;;;9.84;100.00
62150;BME280;48134;53.586;10.610;2023-10-31T00:29:51;98802.16;;;9.83;100.00
62150;BME280;48134;53.586;10.610;2023-10-31T00:32:19;98798.97;;;9.81;100.00
62150;BME280;48134;53.586;10.610;2023-10-31T00:34:52;98793.84;;;9.80;100.00
62150;BME280;48134;53.586;10.610;2023-10-31T00:37:25;98795.78;;;9.79;100.00
62150;BME280;48134;53.586;10.610;2023-10-31T00:39:53;98789.22;;;9.80;100.00
62150;BME280;48134;53.586;10.610;2023-10-31T00:42:27;98784.44;;;9.77;100.00
62150;BME280;48134;53.586;10.610;2023-10-31T00:45:00;98787.31;;;9.81;100.00
62150;BME280;48134;53.586;10.610;2023-10-31T00:47:28;98779.47;;;9.79;100.00
62150;BME280;48134;53.586;10.610;2023-10-31T00:49:56;98780.59;;;9.78;100.00
62150;BME280;48134;53.586;10.610;2023-10-31T00:52:24;98775.00;;;9.83;100.00
62150;BME280;48134;53.586;10.610;2023-10-31T00:54:57;98770.84;;;9.77;100.00
62150;BME280;48134;53.586;10.610;2023-10-31T00:57:31;98772.78;;;9.77;100.00
62150;BME280;48134;53.586;10.610;2023-10-31T00:59:59;98775.81;;;9.75;100.00
62150;BME280;48134;53.586;10.610;2023-10-31T01:02:27;98769.56;;;9.75;100.00
62150;BME280;48134;53.586;10.610;2023-10-31T01:04:55;98758.69;;;9.75;100.00
62150;BME280;48134;53.586;10.610;2023-10-31T01:07:23;98752.16;;;9.76;100.00
62150;BME280;48134;53.586;10.610;2023-10-31T01:09:56;98756.78;;;9.75;100.00
62150;BME280;48134;53.586;10.610;2023-10-31T01:12:31;98759.84;;;9.74;100.00
62150;BME280;48134;53.586;10.610;2023-10-31T01:14:59;98752.81;;;9.73;100.00
62150;BME280;48134;53.586;10.610;2023-10-31T01:17:27;98749.28;;;9.72;100.00
62150;BME280;48134;53.586;10.610;2023-10-31T01:19:55;98743.38;;;9.70;100.00
62150;BME280;48134;53.586;10.610;2023-10-31T01:22:23;98738.25;;;9.68;100.00
62150;BME280;48134;53.586;10.610;2023-10-31T01:24:51;98747.84;;;9.66;100.00
62150;BME280;48134;53.586;10.610;2023-10-31T01:27:19;98742.59;;;9.69;100.00
62150;BME280;48134;53.586;10.610;2023-10-31T01:29:53;98739.06;;;9.69;100.00
62150;BME280;48134;53.586;10.610;2023-10-31T01:32:21;98739.06;;;9.69;100.00
62150;BME280;48134;53.586;10.610;2023-10-31T01:34:49;98751.53;;;9.70;100.00
62150;BME280;48134;53.586;10.610;2023-10-31T01:37:17;98743.38;;;9.70;100.00
62150;BME280;48134;53.586;10.610;2023-10-31T01:39:47;98741.78;;;9.69;100.00
62150;BME280;48134;53.586;10.610;2023-10-31T01:42:15;98739.06;;;9.69;100.00
62150;BME280;48134;53.586;10.610;2023-10-31T01:44:43;98736.00;;;9.70;100.00
62150;BME280;48134;53.586;10.610;2023-10-31T01:47:12;98740.66;;;9.70;100.00
62150;BME280;48134;53.586;10.610;2023-10-31T01:49:41;98742.25;;;9.71;100.00
62150;BME280;48134;53.586;10.610;2023-10-31T01:52:10;98745.44;;;9.73;100.00
62150;BME280;48134;53.586;10.610;2023-10-31T01:54:38;98738.72;;;9.70;100.00
62150;BME280;48134;53.586;10.610;2023-10-31T01:57:07;98727.88;;;9.70;100.00
62150;BME280;48134;53.586;10.610;2023-10-31T01:59:35;98725.63;;;9.73;100.00
62150;BME280;48134;53.586;10.610;2023-10-31T02:02:08;98717.00;;;9.70;100.00
62150;BME280;48134;53.586;10.610;2023-10-31T02:04:37;98710.78;;;9.70;100.00
62150;BME280;48134;53.586;10.610;2023-10-31T02:07:10;98707.75;;;9.72;100.00
62150;BME280;48134;53.586;10.610;2023-10-31T02:09:38;98707.75;;;9.72;100.00
62150;BME280;48134;53.586;10.610;2023-10-31T02:12:06;98702.31;;;9.72;100.00
62150;BME280;48134;53.586;10.610;2023-10-31T02:14:35;98702.63;;;9.70;100.00
62150;BME280;48134;53.586;10.610;2023-10-31T02:17:08;98695.28;;;9.70;100.00
62150;BME280;48134;53.586;10.610;2023-10-31T02:19:42;98703.75;;;9.69;100.00
62150;BME280;48134;53.586;10.610;2023-10-31T02:22:12;98696.09;;;9.71;100.00
62150;BME280;48134;53.586;10.610;2023-10-31T02:24:44;98692.06;;;9.77;100.00
62150;BME280;48134;53.586;10.610;2023-10-31T02:27:17;98689.38;;;9.68;100.00
62150;BME280;48134;53.586;10.610;2023-10-31T02:29:50;98678.97;;;9.70;100.00
62150;BME280;48134;53.586;10.610;2023-10-31T02:32:18;98684.91;;;9.73;100.00
62150;BME280;48134;53.586;10.610;2023-10-31T02:34:51;98677.06;;;9.71;100.00
62150;BME280;48134;53.586;10.610;2023-10-31T02:37:25;98677.53;;;9.73;100.00
62150;BME280;48134;53.586;10.610;2023-10-31T02:39:53;98665.38;;;9.70;100.00
62150;BME280;48134;53.586;10.610;2023-10-31T02:42:21;98661.56;;;9.72;100.00
62150;BME280;48134;53.586;10.610;2023-10-31T02:44:54;98662.34;;;9.72;100.00
62150;BME280;48134;53.586;10.610;2023-10-31T02:47:22;98658.84;;;9.72;100.00
62150;BME280;48134;53.586;10.610;2023-10-31T02:49:50;98654.53;;;9.70;100.00
62150;BME280;48134;53.586;10.610;2023-10-31T02:52:18;98647.97;;;9.72;100.00
62150;BME280;48134;53.586;10.610;2023-10-31T02:54:47;98649.25;;;9.74;100.00
62150;BME280;48134;53.586;10.610;2023-10-31T02:57:16;98636.78;;;9.73;100.00
62150;BME280;48134;53.586;10.610;2023-10-31T02:59:44;98642.22;;;9.73;100.00
62150;BME280;48134;53.586;10.610;2023-10-31T03:02:17;98626.09;;;9.77;100.00
62150;BME280;48134;53.586;10.610;2023-10-31T03:04:47;98626.88;;;9.77;100.00
62150;BME280;48134;53.586;10.610;2023-10-31T03:07:15;98635.34;;;9.76;100.00
62150;BME280;48134;53.586;10.610;2023-10-31T03:09:43;98624.81;;;9.74;100.00
62150;BME280;48134;53.586;10.610;2023-10-31T03:12:12;98624.16;;;9.77;100.00
62150;BME280;48134;53.586;10.610;2023-10-31T03:14:41;98628.16;;;9.80;100.00
62150;BME280;48134;53.586;10.610;2023-10-31T03:17:14;98624.63;;;9.79;100.00
62150;BME280;48134;53.586;10.610;2023-10-31T03:19:46;98615.34;;;9.80;100.00
62150;BME280;48134;53.586;10.610;2023-10-31T03:22:14;98622.88;;;9.83;100.00
62150;BME280;48134;53.586;10.610;2023-10-31T03:24:42;98620.16;;;9.83;100.00
62150;BME280;48134;53.586;10.610;2023-10-31T03:27:17;98617.09;;;9.85;100.00
62150;BME280;48134;53.586;10.610;2023-10-31T03:29:45;98617.88;;;9.85;100.00
62150;BME280;48134;53.586;10.610;2023-10-31T03:32:18;98604.31;;;9.85;100.00
62150;BME280;48134;53.586;10.610;2023-10-31T03:34:50;98603.31;;;9.90;100.00
62150;BME280;48134;53.586;10.610;2023-10-31T03:37:24;98601.75;;;9.89;100.00
62150;BME280;48134;53.586;10.610;2023-10-31T03:39:52;98603.66;;;9.88;100.00
62150;BME280;48134;53.586;10.610;2023-10-31T03:42:22;98598.69;;;9.91;100.00
62150;BME280;48134;53.586;10.610;2023-10-31T03:44:55;98594.53;;;9.93;100.00
62150;BME280;48134;53.586;10.610;2023-10-31T03:47:23;98596.44;;;9.93;100.00
62150;BME280;48134;53.586;10.610;2023-10-31T03:49:51;98587.84;;;9.91;100.00
62150;BME280;48134;53.586;10.610;2023-10-31T03:52:24;98583.66;;;9.93;100.00
62150;BME280;48134;53.586;10.610;2023-10-31T03:54:52;98584.59;;;9.97;100.00
62150;BME280;48134;53.586;10.610;2023-10-31T03:57:26;98578.69;;;9.95;100.00
62150;BME280;48134;53.586;10.610;2023-10-31T03:59:54;98586.50;;;9.97;100.00
62150;BME280;48134;53.586;10.610;2023-10-31T04:02:22;98587.00;;;9.99;100.00
62150;BME280;48134;53.586;10.610;2023-10-31T04:04:50;98584.41;;;10.02;100.00
62150;BME280;48134;53.586;10.610;2023-10-31T04:07:18;98578.34;;;9.97;100.00
62150;BME280;48134;53.586;10.610;2023-10-31T04:09:51;98578.66;;;10.04;100.00
62150;BME280;48134;53.586;10.610;2023-10-31T04:12:18;98571.63;;;10.03;100.00
62150;BME280;48134;53.586;10.610;2023-10-31T04:14:48;98572.09;;;10.05;100.00
62150;BME280;48134;53.586;10.610;2023-10-31T04:17:21;98572.09;;;10.05;100.00
62150;BME280;48134;53.586;10.610;2023-10-31T04:19:49;98568.59;;;10.04;100.00
62150;BME280;48134;53.586;10.610;2023-10-31T04:22:17;98565.53;;;10.06;100.00
62150;BME280;48134;53.586;10.610;2023-10-31T04:24:50;98569.53;;;10.09;100.00
62150;BME280;48134;53.586;10.610;2023-10-31T04:27:17;98572.25;;;10.09;100.00
62150;BME280;48134;53.586;10.610;2023-10-31T04:29:52;98563.41;;;10.12;100.00
62150;BME280;48134;53.586;10.610;2023-10-31T04:32:20;98565.03;;;10.13;100.00
62150;BME280;48134;53.586;10.610;2023-10-31T04:34:48;98550.31;;;10.14;100.00
62150;BME280;48134;53.586;10.610;2023-10-31T04:37:21;98551.28;;;10.09;100.00
62150;BME280;48134;53.586;10.610;2023-10-31T04:39:49;98553.81;;;10.14;100.00
62150;BME280;48134;53.586;10.610;2023-10-31T04:42:17;98543.72;;;10.15;100.00
62150;BME280;48134;53.586;10.610;2023-10-31T04:44:47;98544.22;;;10.17;100.00
62150;BME280;48134;53.586;10.610;2023-10-31T04:47:16;98541.50;;;10.17;100.00
62150;BME280;48134;53.586;10.610;2023-10-31T04:49:49;98534.59;;;10.19;100.00
62150;BME280;48134;53.586;10.610;2023-10-31T04:52:17;98534.28;;;10.21;100.00
62150;BME280;48134;53.586;10.610;2023-10-31T04:54:51;98533.59;;;10.24;100.00
62150;BME280;48134;53.586;10.610;2023-10-31T04:57:24;98537.44;;;10.23;100.00
62150;BME280;48134;53.586;10.610;2023-10-31T04:59:52;98530.22;;;10.27;100.00
62150;BME280;48134;53.586;10.610;2023-10-31T05:02:22;98531.03;;;10.28;100.00
62150;BME280;48134;53.586;10.610;2023-10-31T05:04:55;98525.25;;;10.29;100.00
62150;BME280;48134;53.586;10.610;2023-10-31T05:07:29;98516.78;;;10.31;100.00
62150;BME280;48134;53.586;10.610;2023-10-31T05:10:04;98522.53;;;10.29;100.00
62150;BME280;48134;53.586;10.610;2023-10-31T05:12:37;98513.38;;;10.34;100.00
62150;BME280;48134;53.586;10.610;2023-10-31T05:15:10;98507.16;;;10.33;100.00
62150;BME280;48134;53.586;10.610;2023-10-31T05:17:45;98508.13;;;10.37;100.00
62150;BME280;48134;53.586;10.610;2023-10-31T05:20:17;98519.13;;;10.41;100.00
62150;BME280;48134;53.586;10.610;2023-10-31T05:22:46;98510.31;;;10.44;100.00
62150;BME280;48134;53.586;10.610;2023-10-31T05:25:14;98518.47;;;10.44;100.00
62150;BME280;48134;53.586;10.610;2023-10-31T05:27:41;98525.63;;;10.49;100.00
62150;BME280;48134;53.586;10.610;2023-10-31T05:30:14;98516.78;;;10.52;100.00
62150;BME280;48134;53.586;10.610;2023-10-31T05:32:42;98511.03;;;10.53;100.00
62150;BME280;48134;53.586;10.610;2023-10-31T05:35:12;98516.47;;;10.53;100.00
62150;BME280;48134;53.586;10.610;2023-10-31T05:37:46;98512.63;;;10.54;100.00
62150;BME280;48134;53.586;10.610;2023-10-31T05:40:19;98509.56;;;10.56;100.00
62150;BME280;48134;53.586;10.610;2023-10-31T05:42:49;98518.41;;;10.53;100.00
62150;BME280;48134;53.586;10.610;2023-10-31T05:45:16;98515.47;;;10.58;100.00
62150;BME280;48134;53.586;10.610;2023-10-31T05:47:49;98509.03;;;10.63;100.00
62150;BME280;48134;53.586;10.610;2023-10-31T05:50:24;98521.84;;;10.62;100.00
62150;BME280;48134;53.586;10.610;2023-10-31T05:52:51;98524.81;;;10.69;100.00
62150;BME280;48134;53.586;10.610;2023-10-31T05:55:19;98520.84;;;10.67;100.00
62150;BME280;48134;53.586;10.610;2023-10-31T05:57:47;98510.75;;;10.67;100.00
62150;BME280;48134;53.586;10.610;2023-10-31T06:00:15;98504.84;;;10.65;100.00
62150;BME280;48134;53.586;10.610;2023-10-31T06:02:43;98513.47;;;10.67;100.00
62150;BME280;48134;53.586;10.610;2023-10-31T06:05:16;98517.09;;;10.71;100.00
62150;BME280;48134;53.586;10.610;2023-10-31T06:07:50;98510.44;;;10.69;100.00
62150;BME280;48134;53.586;10.610;2023-10-31T06:10:19;98506.56;;;10.70;100.00
62150;BME280;48134;53.586;10.610;2023-10-31T06:12:53;98515.06;;;10.68;100.00
62150;BME280;48134;53.586;10.610;2023-10-31T06:15:20;98512.69;;;10.67;100.00
62150;BME280;48134;53.586;10.610;2023-10-31T06:17:53;98510.53;;;10.72;100.00
62150;BME280;48134;53.586;10.610;2023-10-31T06:20:26;98510.09;;;10.70;100.00
62150;BME280;48134;53.586;10.610;2023-10-31T06:22:56;98517.25;;;10.75;100.00
62150;BME280;48134;53.586;10.610;2023-10-31T06:25:29;98517.91;;;10.72;100.00
62150;BME280;48134;53.586;10.610;2023-10-31T06:28:02;98515.88;;;10.69;100.00
62150;BME280;48134;53.586;10.610;2023-10-31T06:30:30;98515.06;;;10.68;100.00
62150;BME280;48134;53.586;10.610;2023-10-31T06:33:03;98522.69;;;10.75;100.00
62150;BME280;48134;53.586;10.610;2023-10-31T06:35:31;98524.63;;;10.75;100.00
62150;BME280;48134;53.586;10.610;2023-10-31T06:38:00;98523.38;;;10.72;100.00
62150;BME280;48134;53.586;10.610;2023-10-31T06:40:28;98525.53;;;10.79;100.00
62150;BME280;48134;53.586;10.610;2023-10-31T06:42:56;98515.91;;;10.81;100.00
62150;BME280;48134;53.586;10.610;2023-10-31T06:45:24;98520.44;;;10.77;100.00
62150;BME280;48134;53.586;10.610;2023-10-31T06:47:54;98514.53;;;10.75;100.00
62150;BME280;48134;53.586;10.610;2023-10-31T06:50:22;98521.22;;;10.78;100.00
62150;BME280;48134;53.586;10.610;2023-10-31T06:52:50;98510.34;;;10.78;100.00
62150;BME280;48134;53.586;10.610;2023-10-31T06:55:20;98512.72;;;10.79;100.00
62150;BME280;48134;53.586;10.610;2023-10-31T06:57:53;98512.88;;;10.83;100.00
62150;BME280;48134;53.586;10.610;2023-10-31T07:00:26;98516.38;;;10.83;100.00
62150;BME280;48134;53.586;10.610;2023-10-31T07:02:59;98514.00;;;10.82;100.00
62150;BME280;48134;53.586;10.610;2023-10-31T07:05:36;98511.59;;;10.80;100.00
62150;BME280;48134;53.586;10.610;2023-10-31T07:08:09;98513.66;;;10.83;100.00
62150;BME280;48134;53.586;10.610;2023-10-31T07:10:39;98513.78;;;10.87;100.00
62150;BME280;48134;53.586;10.610;2023-10-31T07:13:06;98518.94;;;10.80;100.00
62150;BME280;48134;53.586;10.610;2023-10-31T07:15:34;98510.94;;;10.83;100.00
62150;BME280;48134;53.586;10.610;2023-10-31T07:18:05;98508.75;;;10.77;100.00
62150;BME280;48134;53.586;10.610;2023-10-31T07:20:34;98513.06;;;10.78;100.00
62150;BME280;48134;53.586;10.610;2023-10-31T07:23:01;98512.34;;;10.68;100.00
62150;BME280;48134;53.586;10.610;2023-10-31T07:25:29;98523.22;;;10.68;100.00
62150;BME280;48134;53.586;10.610;2023-10-31T07:27:59;98514.63;;;10.66;100.00
62150;BME280;48134;53.586;10.610;2023-10-31T07:30:32;98517.44;;;10.70;100.00
62150;BME280;48134;53.586;10.610;2023-10-31T07:33:05;98509.38;;;10.61;100.00
62150;BME280;48134;53.586;10.610;2023-10-31T07:35:38;98519.78;;;10.59;100.00
62150;BME280;48134;53.586;10.610;2023-10-31T07:38:06;98526.03;;;10.60;100.00
62150;BME280;48134;53.586;10.610;2023-10-31T07:40:34;98518.72;;;10.51;100.00
62150;BME280;48134;53.586;10.610;2023-10-31T07:43:08;98522.31;;;10.43;100.00
62150;BME280;48134;53.586;10.610;2023-10-31T07:45:36;98517.94;;;10.51;100.00
62150;BME280;48134;53.586;10.610;2023-10-31T07:48:04;98514.94;;;10.44;100.00
62150;BME280;48134;53.586;10.610;2023-10-31T07:50:37;98532.94;;;10.36;100.00
62150;BME280;48134;53.586;10.610;2023-10-31T07:53:05;98529.59;;;10.30;100.00
62150;BME280;48134;53.586;10.610;2023-10-31T07:55:38;98526.25;;;10.25;100.00
62150;BME280;48134;53.586;10.610;2023-10-31T07:58:12;98531.06;;;10.19;100.00
62150;BME280;48134;53.586;10.610;2023-10-31T08:00:40;98526.31;;;10.16;100.00
62150;BME280;48134;53.586;10.610;2023-10-31T08:03:13;98531.75;;;10.16;100.00
62150;BME280;48134;53.586;10.610;2023-10-31T08:05:41;98523.00;;;10.10;100.00
62150;BME280;48134;53.586;10.610;2023-10-31T08:08:09;98525.97;;;10.17;100.00
62150;BME280;48134;53.586;10.610;2023-10-31T08:10:37;98530.53;;;10.04;100.00
62150;BME280;48134;53.586;10.610;2023-10-31T08:13:10;98529.09;;;10.07;100.00
62150;BME280;48134;53.586;10.610;2023-10-31T08:15:39;98528.59;;;10.05;100.00
62150;BME280;48134;53.586;10.610;2023-10-31T08:18:12;98527.34;;;10.02;100.00
62150;BME280;48134;53.586;10.610;2023-10-31T08:20:45;98522.25;;;10.01;100.00
62150;BME280;48134;53.586;10.610;2023-10-31T08:23:16;98527.66;;;10.01;100.00
62150;BME280;48134;53.586;10.610;2023-10-31T08:25:44;98524.09;;;10.09;100.00
62150;BME280;48134;53.586;10.610;2023-10-31T08:28:17;98532.41;;;10.13;100.00
62150;BME280;48134;53.586;10.610;2023-10-31T08:30:46;98538.03;;;10.08;100.00
62150;BME280;48134;53.586;10.610;2023-10-31T08:33:14;98548.44;;;10.06;100.00
62150;BME280;48134;53.586;10.610;2023-10-31T08:35:42;98546.56;;;9.97;100.00
62150;BME280;48134;53.586;10.610;2023-10-31T08:38:10;98544.63;;;9.98;100.00
62150;BME280;48134;53.586;10.610;2023-10-31T08:40:38;98550.13;;;9.89;100.00
62150;BME280;48134;53.586;10.610;2023-10-31T08:43:12;98556.22;;;9.86;100.00
62150;BME280;48134;53.586;10.610;2023-10-31T08:45:40;98550.16;;;9.80;100.00
62150;BME280;48134;53.586;10.610;2023-10-31T08:48:14;98542.22;;;9.75;100.00
62150;BME280;48134;53.586;10.610;2023-10-31T08:50:42;98552.25;;;9.75;100.00
62150;BME280;48134;53.586;10.610;2023-10-31T08:53:15;98559.63;;;9.74;100.00
62150;BME280;48134;53.586;10.610;2023-10-31T08:55:45;98558.34;;;9.72;100.00
62150;BME280;48134;53.586;10.610;2023-10-31T08:58:13;98562.78;;;9.76;100.00
62150;BME280;48134;53.586;10.610;2023-10-31T09:00:42;98579.91;;;9.68;100.00
62150;BME280;48134;53.586;10.610;2023-10-31T09:03:09;98574.66;;;9.72;100.00
62150;BME280;48134;53.586;10.610;2023-10-31T09:05:46;98567.63;;;9.70;100.00
62150;BME280;48134;53.586;10.610;2023-10-31T09:08:14;98566.97;;;9.74;100.00
62150;BME280;48134;53.586;10.610;2023-10-31T09:10:47;98563.44;;;9.73;100.00
62150;BME280;48134;53.586;10.610;2023-10-31T09:13:20;98565.84;;;9.75;100.00
62150;BME280;48134;53.586;10.610;2023-10-31T09:15:53;98565.72;;;9.71;100.00
62150;BME280;48134;53.586;10.610;2023-10-31T09:18:21;98565.88;;;9.66;100.00
62150;BME280;48134;53.586;10.610;2023-10-31T09:20:50;98563.94;;;9.66;100.00
62150;BME280;48134;53.586;10.610;2023-10-31T09:23:23;98567.63;;;9.70;100.00
62150;BME280;48134;53.586;10.610;2023-10-31T09:25:51;98566.78;;;9.79;100.00
62150;BME280;48134;53.586;10.610;2023-10-31T09:28:19;98570.81;;;9.73;100.00
62150;BME280;48134;53.586;10.610;2023-10-31T09:30:47;98569.53;;;9.70;100.00
62150;BME280;48134;53.586;10.610;2023-10-31T09:33:20;98574.19;;;9.61;100.00
62150;BME280;48134;53.586;10.610;2023-10-31T09:35:49;98574.03;;;9.66;100.00
62150;BME280;48134;53.586;10.610;2023-10-31T09:38:22;98571.16;;;9.71;100.00
62150;BME280;48134;53.586;10.610;2023-10-31T09:40:50;98570.47;;;9.74;100.00
62150;BME280;48134;53.586;10.610;2023-10-31T09:43:23;98580.88;;;9.72;100.00
62150;BME280;48134;53.586;10.610;2023-10-31T09:45:51;98585.34;;;9.68;100.00
62150;BME280;48134;53.586;10.610;2023-10-31T09:48:20;98590.00;;;9.67;100.00
62150;BME280;48134;53.586;10.610;2023-10-31T09:50:49;98589.22;;;9.67;100.00
62150;BME280;48134;53.586;10.610;2023-10-31T09:53:17;98593.19;;;9.69;100.00
62150;BME280;48134;53.586;10.610;2023-10-31T09:55:50;98589.66;;;9.78;100.00
62150;BME280;48134;53.586;10.610;2023-10-31T09:58:20;98591.88;;;9.76;100.00
62150;BME280;48134;53.586;10.610;2023-10-31T10:00:48;98589.81;;;9.73;100.00
62150;BME280;48134;53.586;10.610;2023-10-31T10:03:21;98597.16;;;9.72;100.00
62150;BME280;48134;53.586;10.610;2023-10-31T10:05:56;98602.41;;;9.77;100.00
62150;BME280;48134;53.586;10.610;2023-10-31T10:08:24;98606.56;;;9.83;100.00
62150;BME280;48134;53.586;10.610;2023-10-31T10:10:52;98607.34;;;9.84;100.00
62150;BME280;48134;53.586;10.610;2023-10-31T10:13:20;98608.75;;;9.90;100.00
62150;BME280;48134;53.586;10.610;2023-10-31T10:15:50;98615.34;;;9.89;100.00
62150;BME280;48134;53.586;10.610;2023-10-31T10:18:24;98618.06;;;9.89;100.00
62150;BME280;48134;53.586;10.610;2023-10-31T10:20:57;98623.28;;;9.94;100.00
62150;BME280;48134;53.586;10.610;2023-10-31T10:23:25;98618.78;;;9.98;100.00
62150;BME280;48134;53.586;10.610;2023-10-31T10:25:54;98632.97;;;10.13;100.00
62150;BME280;48134;53.586;10.610;2023-10-31T10:28:23;98633.44;;;10.15;100.00
62150;BME280;48134;53.586;10.610;2023-10-31T10:30:52;98643.34;;;10.11;100.00
62150;BME280;48134;53.586;10.610;2023-10-31T10:33:25;98650.91;;;10.05;100.00
62150;BME280;48134;53.586;10.610;2023-10-31T10:35:54;98648.22;;;9.96;100.00
62150;BME280;48134;53.586;10.610;2023-10-31T10:38:29;98668.53;;;9.90;100.00
62150;BME280;48134;53.586;10.610;2023-10-31T10:41:06;98686.16;;;9.75;100.00
62150;BME280;48134;53.586;10.610;2023-10-31T10:43:42;98704.56;;;9.61;100.00
62150;BME280;48134;53.586;10.610;2023-10-31T10:46:16;98703.28;;;9.32;100.00
62150;BME280;48134;53.586;10.610;2023-10-31T10:48:46;98713.53;;;9.17;100.00
62150;BME280;48134;53.586;10.610;2023-10-31T10:51:18;98719.56;;;9.06;100.00
62150;BME280;48134;53.586;10.610;2023-10-31T10:53:49;98730.44;;;9.06;100.00
62150;BME280;48134;53.586;10.610;2023-10-31T10:56:19;98751.34;;;9.05;100.00
62150;BME280;48134;53.586;10.610;2023-10-31T10:58:51;98765.19;;;8.86;100.00
62150;BME280;48134;53.586;10.610;2023-10-31T11:01:19;98775.88;;;8.82;100.00
62150;BME280;48134;53.586;10.610;2023-10-31T11:03:48;98789.91;;;8.76;100.00
62150;BME280;48134;53.586;10.610;2023-10-31T11:06:16;98794.94;;;8.68;100.00
62150;BME280;48134;53.586;10.610;2023-10-31T11:08:46;98802.13;;;8.64;100.00
62150;BME280;48134;53.586;10.610;2023-10-31T11:11:16;98817.41;;;8.60;100.00
62150;BME280;48134;53.586;10.610;2023-10-31T11:13:44;98832.75;;;8.65;100.00
62150;BME280;48134;53.586;10.610;2023-10-31T11:16:20;98838.94;;;8.57;100.00
62150;BME280;48134;53.586;10.610;2023-10-31T11:18:51;98852.81;;;8.55;100.00
62150;BME280;48134;53.586;10.610;2023-10-31T11:21:27;98873.56;;;8.60;100.00
62150;BME280;48134;53.586;10.610;2023-10-31T11:23:59;98880.56;;;8.52;100.00
62150;BME280;48134;53.586;10.610;2023-10-31T11:26:28;98897.94;;;8.51;100.00
62150;BME280;48134;53.586;10.610;2023-10-31T11:29:03;98919.41;;;8.47;100.00
62150;BME280;48134;53.586;10.610;2023-10-31T11:31:31;98921.66;;;8.45;100.00
62150;BME280;48134;53.586;10.610;2023-10-31T11:34:00;98921.94;;;8.44;100.00
62150;BME280;48134;53.586;10.610;2023-10-31T11:36:29;98933.56;;;8.44;100.00
62150;BME280;48134;53.586;10.610;2023-10-31T11:39:12;98935.22;;;8.45;100.00
62150;BME280;48134;53.586;10.610;2023-10-31T11:41:46;98943.44;;;8.40;100.00
62150;BME280;48134;53.586;10.610;2023-10-31T11:44:16;98950.13;;;8.43;100.00
62150;BME280;48134;53.586;10.610;2023-10-31T11:46:47;98970.44;;;8.45;100.00
62150;BME280;48134;53.586;10.610;2023-10-31T11:52:13;98976.16;;;8.44;100.00
62150;BME280;48134;53.586;10.610;2023-10-31T11:54:41;98981.28;;;8.45;100.00
62150;BME280;48134;53.586;10.610;2023-10-31T11:57:11;99000.44;;;8.49;100.00
62150;BME280;48134;53.586;10.610;2023-10-31T11:59:53;99005.69;;;8.45;100.00
62150;BME280;48134;53.586;10.610;2023-10-31T12:02:21;99014.38;;;8.42;100.00
62150;BME280;48134;53.586;10.610;2023-10-31T12:05:06;99015.81;;;8.40;100.00
62150;BME280;48134;53.586;10.610;2023-10-31T12:07:42;99025.16;;;8.47;100.00
62150;BME280;48134;53.586;10.610;2023-10-31T12:10:10;99025.41;;;8.60;100.00
62150;BME280;48134;53.586;10.610;2023-10-31T12:12:39;99030.59;;;8.70;100.00
62150;BME280;48134;53.586;10.610;2023-10-31T12:15:13;99034.03;;;8.84;100.00
62150;BME280;48134;53.586;10.610;2023-10-31T12:17:46;99039.78;;;8.83;100.00
62150;BME280;48134;53.586;10.610;2023-10-31T12:20:14;99054.28;;;8.78;100.00
62150;BME280;48134;53.586;10.610;2023-10-31T12:22:42;99059.09;;;8.81;100.00
62150;BME280;48134;53.586;10.610;2023-10-31T12:25:11;99068.69;;;8.88;100.00
62150;BME280;48134;53.586;10.610;2023-10-31T12:27:44;99083.66;;;8.85;100.00
62150;BME280;48134;53.586;10.610;2023-10-31T12:30:14;99090.06;;;8.89;100.00
62150;BME280;48134;53.586;10.610;2023-10-31T12:32:43;99091.94;;;9.02;100.00
62150;BME280;48134;53.586;10.610;2023-10-31T12:35:12;99091.00;;;9.07;100.00
62150;BME280;48134;53.586;10.610;2023-10-31T12:37:44;99106.31;;;9.03;100.00
62150;BME280;48134;53.586;10.610;2023-10-31T12:40:13;99099.22;;;9.16;100.00
62150;BME280;48134;53.586;10.610;2023-10-31T12:42:45;99098.28;;;9.21;100.00
62150;BME280;48134;53.586;10.610;2023-10-31T12:45:17;99108.72;;;9.27;100.00
62150;BME280;48134;53.586;10.610;2023-10-31T12:47:59;99103.91;;;9.24;100.00
62150;BME280;48134;53.586;10.610;2023-10-31T12:50:28;99113.03;;;9.28;100.00
62150;BME280;48134;53.586;10.610;2023-10-31T12:52:56;99111.38;;;9.18;100.00
62150;BME280;48134;53.586;10.610;2023-10-31T12:55:26;99110.44;;;9.23;100.00
62150;BME280;48134;53.586;10.610;2023-10-31T12:57:56;99120.63;;;9.17;100.00
62150;BME280;48134;53.586;10.610;2023-10-31T13:00:30;99122.34;;;9.13;100.00
62150;BME280;48134;53.586;10.610;2023-10-31T13:02:58;99133.09;;;9.18;100.00
62150;BME280;48134;53.586;10.610;2023-10-31T13:05:28;99135.19;;;9.22;100.00